Hovedside
METAR-TAF:

METAR-TAF

Lufthavner :

N'Djamena, Tsjad

N'Djamena internasjonale lufthavn

breddegrad: 12-08N, lengdegrad: 015-02E, høyde over havet: 295 m

Gjeldene værobservasjon

Denne rapporten ble laget for 36 minutter siden, klokken 21:00 UTC
Vind 7 kt fra Nord
Temperatur 21°C
Luftfuktighet 12%
Trykk 1013 hPa
Sikt 10 km eller mer
ingen skyer under 1500 m og ingen bygeskyer

METAR: FTTJ 182100Z 36007KT CAVOK 21/M09 Q1013 NOSIG

Tid: 22:36 (21:36 UTC)

Varsel

Denne rapporten ble laget for 4 timer og 36 minutter siden, klokken 17:00 UTC
Varsel gyldig fra 18. klokken 18 UTC til 19. klokken 24 UTC
Vind 6 kt fra Nord-nordøst
Sikt: 6000 m
Midlertidig
fra 19. klokken 08 UTC til 19. klokken 15 UTC
Vind 12 kt fra Øst-nordøst

TAF: FTTJ 181700Z 1818/1924 02006KT 6000 NSW TEMPO 1908/1915 06012KT

Værobservasjoner og værvarsel for over 4000 flyplasser (METAR- og TAF-rapporter).

Tilgjengelige stasjoner er representert av de røde og gule prikkene på kartet.

Hold musepekeren over prikken for å se navnet på stasjonen.

Klikk så for å se værobservasjoner og -varsler.

For å forandre kartet kan du klikke på den grønne knappen med svart kryss for å zoome inn, på den grønne knappen med strek for å zoome ut, eller på de grønne pilene for å se tilstøtende kart.


METAR-TAF: